首页
METAR-TAF:

METAR-TAF

机场 :

Bückeburg, 德国

纬度: 52-17N, 经度: 009-05E, 海拔: 70米

当前天气观测

该预报发布于1小时和0分钟前的03:20 UTC
风速9节,风向西转西南
温度 9°C
湿度 93%
气压 995 hPa
能见度10公里或以上

METAR: ETHB 050320Z AUTO 25009KT 9999 // ////// 09/08 Q0995 ///

时间: 06:20 (04:20 UTC)

预报

该预报发布于11小时和58分钟前的16:22 UTC
预报有效从04日的 17点(UTC)到 05日的 02点(UTC)
风速10节,风向西转西南
能见度10公里或以上
散云层高于2000英尺
多云层高于5000英尺
短暂存在
从 04日的 17点(UTC)到 04日的 20点(UTC)
风速12节,风向西转西北,有时为22节阵风
能見度: 4500
散云层高于1000英尺
多云层高于2000英尺, 积雨云.
阵雨
短暂存在
从 04日的 20点(UTC)到 04日的 22点(UTC)
风速10节,风向西,有时为20节阵风
能見度: 6000
散云层高于1500英尺
多云层高于2500英尺
小雨

TAF: ETHB 041622Z 0417/0502 24010KT 9999 NSW SCT020 BKN050 TEMPO 0417/0420 29012G22KT 4500 SHRA SCT010 BKN020CB TEMPO 0420/0422 26010G20KT 6000 -RA SCT015 BKN025

超过4000个机场的气象观测和天气预报(METAR&TAF报告)。

可查询的气象台以黄色和红色小点在地图上表示。

将鼠标移到小点上方,可查看气象台名称。

然后点击查看天气观测和预报。

如需切换地图:点击带黑十字的绿色按钮放大地图;点击带横线的绿色按钮缩小地图;或者点击绿色箭头查看邻近地区的地图。


METAR-TAF: